Terminal Aerodrome Forecast
Issued by NWS

Home | Current Version | Previous Version | Text Only | Print | Product List | Glossary On
Versions: 1 2 3 4 5 6 7 8 9 10 11 12 13 14 15 16 17 18 19 20 21 22
000
FTUS43 KIND 210520
TAFLAF
TAF
KLAF 210520Z 2106/2206 17009KT P6SM BKN250
     FM211200 20004KT 6SM BR VCSH OVC090
     FM211500 22005KT 6SM -SHRA BR OVC050
     FM211800 23005KT 6SM BR VCSH OVC045
     FM212100 25004KT 5SM BR BKN035
     FM220000 22004KT 6SM BR BKN035
      AMD LTD TO CLD VIS AND WIND TIL 211400=

USA.gov is the U.S. government's official web portal to all federal, state and local government web resources and services.